Time;durP1;ratioP1;P1;durP2;ratioP2;P2;SDS_P1;SDS_P2;PMS_P1;PMS_P2;Temp;Humidity;BMP_temperature;BMP_pressure;BME280_temperature;BME280_humidity;BME280_pressure;Samples;Min_cycle;Max_cycle;Signal;HPM_P1;HPM_P2
2024/01/18 00:07:15;;;;;;;;;;;5.50;99.90;;;;;;20871589;28;19924;-78
2024/01/18 00:17:16;;;;;;;;;;;5.70;99.90;;;;;;20892049;28;19962;-78
2024/01/18 00:27:17;;;;;;;;;;;5.90;99.90;;;;;;20880350;28;19917;-79
2024/01/18 00:37:18;;;;;;;;;;;5.80;99.90;;;;;;20875045;28;20338;-80
2024/01/18 00:47:18;;;;;;;;;;;5.80;99.90;;;;;;20886639;28;19917;-81
2024/01/18 00:57:19;;;;;;;;;;;5.80;99.90;;;;;;20891101;28;19924;-78
2024/01/18 01:07:20;;;;;;;;;;;5.60;99.90;;;;;;20889638;28;19924;-78
2024/01/18 01:17:20;;;;;;;;;;;5.80;99.90;;;;;;20884135;28;20588;-79
2024/01/18 01:27:21;;;;;;;;;;;6.00;99.90;;;;;;20892695;28;19960;-77
2024/01/18 01:37:21;;;;;;;;;;;6.00;99.90;;;;;;20874030;28;19971;-78
2024/01/18 01:47:24;;;;;;;;;;;6.00;99.90;;;;;;20885449;28;20281;-78
2024/01/18 01:57:25;;;;;;;;;;;6.30;99.90;;;;;;20879653;28;19913;-79
2024/01/18 02:07:28;;;;;;;;;;;6.20;99.90;;;;;;20868472;28;19917;-77
2024/01/18 02:17:29;;;;;;;;;;;5.90;99.90;;;;;;20877753;28;19932;-78
2024/01/18 02:27:29;;;;;;;;;;;6.10;99.90;;;;;;20853182;28;19936;-77
2024/01/18 02:37:30;;;;;;;;;;;6.20;99.90;;;;;;20895062;28;19921;-79
2024/01/18 02:47:31;;;;;;;;;;;6.50;99.90;;;;;;20891936;28;19987;-77
2024/01/18 02:57:31;;;;;;;;;;;6.70;99.90;;;;;;20864281;28;19940;-78
2024/01/18 03:07:33;;;;;;;;;;;6.80;99.90;;;;;;20856519;28;19917;-79
2024/01/18 03:17:33;;;;;;;;;;;7.00;99.90;;;;;;20858343;28;20395;-79
2024/01/18 03:27:34;;;;;;;;;;;6.80;99.90;;;;;;20885572;28;19917;-79
2024/01/18 03:37:35;;;;;;;;;;;6.90;99.90;;;;;;20883047;28;19917;-79
2024/01/18 03:47:36;;;;;;;;;;;6.70;99.90;;;;;;20873358;28;19921;-79
2024/01/18 03:57:37;;;;;;;;;;;6.60;99.90;;;;;;20882202;28;19913;-79
2024/01/18 04:07:38;;;;;;;;;;;6.80;99.90;;;;;;20877406;28;19923;-79
2024/01/18 04:17:39;;;;;;;;;;;6.30;99.90;;;;;;20878857;28;19920;-79
2024/01/18 04:27:39;;;;;;;;;;;5.80;99.90;;;;;;20868450;28;20419;-79
2024/01/18 04:37:41;;;;;;;;;;;6.20;99.90;;;;;;20862698;28;19921;-79
2024/01/18 04:47:41;;;;;;;;;;;6.00;99.90;;;;;;20872403;28;19924;-78
2024/01/18 04:57:43;;;;;;;;;;;6.10;99.90;;;;;;20888226;28;19940;-79
2024/01/18 05:07:44;;;;;;;;;;;6.20;99.90;;;;;;20862817;28;19967;-79
2024/01/18 05:17:46;;;;;;;;;;;6.20;99.90;;;;;;20890941;28;19952;-80
2024/01/18 05:27:47;;;;;;;;;;;6.30;99.90;;;;;;20856429;28;19999;-80
2024/01/18 05:37:48;;;;;;;;;;;6.60;99.90;;;;;;20880787;28;19917;-79
2024/01/18 05:47:48;;;;;;;;;;;6.80;99.90;;;;;;20874911;28;19917;-79
2024/01/18 05:57:49;;;;;;;;;;;7.00;99.90;;;;;;20879670;28;19920;-79
2024/01/18 06:07:50;;;;;;;;;;;6.90;99.90;;;;;;20858838;28;19927;-79
2024/01/18 06:17:50;;;;;;;;;;;6.90;99.90;;;;;;20856062;28;20008;-78
2024/01/18 06:27:51;;;;;;;;;;;6.80;99.90;;;;;;20889640;28;19916;-78
2024/01/18 06:37:52;;;;;;;;;;;6.90;99.90;;;;;;20867240;28;19917;-81
2024/01/18 06:47:52;;;;;;;;;;;6.90;99.90;;;;;;20875168;28;19924;-79
2024/01/18 06:57:53;;;;;;;;;;;7.10;99.90;;;;;;20862034;28;19949;-79
2024/01/18 07:07:54;;;;;;;;;;;7.10;99.90;;;;;;20859375;28;19921;-78
2024/01/18 07:17:54;;;;;;;;;;;7.20;99.90;;;;;;20879224;28;20014;-78
2024/01/18 07:27:55;;;;;;;;;;;7.10;99.90;;;;;;20852074;28;20015;-79
2024/01/18 07:37:56;;;;;;;;;;;7.10;99.90;;;;;;20842646;28;19956;-78
2024/01/18 07:47:56;;;;;;;;;;;7.00;99.90;;;;;;20866265;28;20380;-78
2024/01/18 07:57:57;;;;;;;;;;;7.00;99.90;;;;;;20876674;28;20409;-77
2024/01/18 08:07:58;;;;;;;;;;;7.10;99.90;;;;;;20870255;28;19917;-77
2024/01/18 08:17:58;;;;;;;;;;;7.10;99.90;;;;;;20884723;28;19913;-78
2024/01/18 08:28:00;;;;;;;;;;;7.10;99.90;;;;;;20870332;28;19970;-78
2024/01/18 08:38:01;;;;;;;;;;;7.20;99.90;;;;;;20879150;28;20415;-78
2024/01/18 08:48:02;;;;;;;;;;;7.20;99.90;;;;;;20874960;28;20306;-79
2024/01/18 08:58:02;;;;;;;;;;;7.20;99.90;;;;;;20852627;28;19914;-78
2024/01/18 09:08:03;;;;;;;;;;;7.20;99.90;;;;;;20848389;28;19924;-77
2024/01/18 09:18:04;;;;;;;;;;;7.20;99.90;;;;;;20854843;28;19914;-78
2024/01/18 09:28:07;;;;;;;;;;;7.40;99.90;;;;;;20878836;28;19917;-79
2024/01/18 09:38:10;;;;;;;;;;;7.40;99.90;;;;;;20876789;28;19924;-79
2024/01/18 09:48:10;;;;;;;;;;;7.10;99.90;;;;;;20865342;28;19921;-79
2024/01/18 09:58:12;;;;;;;;;;;7.40;99.90;;;;;;20878574;28;19956;-79
2024/01/18 10:08:13;;;;;;;;;;;7.60;99.90;;;;;;20867191;28;19928;-80
2024/01/18 10:18:14;;;;;;;;;;;7.70;99.90;;;;;;20875299;28;19955;-79
2024/01/18 10:28:15;;;;;;;;;;;8.20;99.90;;;;;;20923503;28;19917;-79
2024/01/18 10:38:15;;;;;;;;;;;8.20;99.90;;;;;;20891907;28;19917;-80
2024/01/18 10:48:17;;;;;;;;;;;8.30;99.90;;;;;;20874205;28;19917;-80
2024/01/18 10:58:19;;;;;;;;;;;8.50;99.90;;;;;;20899904;28;20011;-80
2024/01/18 11:08:21;;;;;;;;;;;8.40;99.90;;;;;;20895314;28;20557;-80
2024/01/18 11:18:24;;;;;;;;;;;8.40;99.90;;;;;;20869969;28;19913;-80
2024/01/18 11:28:25;;;;;;;;;;;8.50;99.90;;;;;;20851618;28;19961;-80
2024/01/18 11:38:33;;;;;;;;;;;8.90;99.90;;;;;;20872366;28;19917;-79
2024/01/18 11:48:33;;;;;;;;;;;9.30;99.90;;;;;;20870491;28;19939;-80
2024/01/18 11:58:34;;;;;;;;;;;9.60;99.90;;;;;;20919588;28;19944;-80
2024/01/18 12:08:35;;;;;;;;;;;9.70;99.90;;;;;;20899894;28;19916;-79
2024/01/18 12:18:39;;;;;;;;;;;9.70;99.90;;;;;;20904626;28;19948;-79
2024/01/18 12:28:40;;;;;;;;;;;9.70;99.90;;;;;;20880070;28;19928;-80
2024/01/18 12:38:41;;;;;;;;;;;9.80;99.90;;;;;;20873341;28;19924;-78
2024/01/18 12:48:41;;;;;;;;;;;9.80;99.90;;;;;;20865724;28;20239;-80
2024/01/18 12:58:42;;;;;;;;;;;9.80;99.90;;;;;;20861311;28;19953;-80
2024/01/18 13:08:43;;;;;;;;;;;9.70;99.90;;;;;;20844224;28;20380;-79
2024/01/18 13:18:44;;;;;;;;;;;9.40;99.90;;;;;;20861468;28;19914;-79
2024/01/18 13:28:44;;;;;;;;;;;8.80;99.90;;;;;;20849093;28;19917;-78
2024/01/18 13:38:45;;;;;;;;;;;8.50;99.90;;;;;;20834924;28;19936;-79
2024/01/18 13:48:46;;;;;;;;;;;7.70;99.90;;;;;;20862907;28;19917;-78
2024/01/18 13:58:47;;;;;;;;;;;6.60;99.90;;;;;;20875047;28;19920;-78
2024/01/18 14:08:48;;;;;;;;;;;5.40;99.90;;;;;;20869858;28;19940;-78
2024/01/18 14:18:48;;;;;;;;;;;4.80;99.90;;;;;;20856644;28;19920;-78
2024/01/18 14:28:49;;;;;;;;;;;4.40;99.90;;;;;;20877583;28;19917;-78
2024/01/18 14:38:49;;;;;;;;;;;3.90;99.90;;;;;;20874562;28;19913;-79
2024/01/18 14:48:50;;;;;;;;;;;3.70;99.90;;;;;;20868030;28;19927;-79
2024/01/18 14:58:51;;;;;;;;;;;3.40;99.90;;;;;;20878216;28;20012;-80
2024/01/18 15:08:51;;;;;;;;;;;3.10;99.90;;;;;;20882289;28;20010;-78
2024/01/18 15:18:52;;;;;;;;;;;2.90;99.90;;;;;;20874227;28;19913;-79
2024/01/18 15:28:53;;;;;;;;;;;2.50;99.90;;;;;;20898273;28;20054;-79
2024/01/18 15:38:53;;;;;;;;;;;2.40;99.90;;;;;;20868653;28;19917;-78
2024/01/18 15:48:57;;;;;;;;;;;2.20;99.90;;;;;;20873165;28;19925;-78
2024/01/18 15:58:58;;;;;;;;;;;1.90;99.90;;;;;;20895673;28;19991;-75
2024/01/18 16:08:58;;;;;;;;;;;1.70;99.90;;;;;;20880126;28;20291;-76
2024/01/18 16:18:59;;;;;;;;;;;1.50;99.90;;;;;;20879151;28;19912;-76
2024/01/18 16:29:00;;;;;;;;;;;1.30;99.90;;;;;;20887539;28;19917;-76
2024/01/18 16:39:01;;;;;;;;;;;1.20;99.90;;;;;;20885469;28;19916;-77
2024/01/18 16:49:03;;;;;;;;;;;1.20;99.90;;;;;;20858094;28;19921;-76
2024/01/18 16:59:03;;;;;;;;;;;1.10;99.90;;;;;;20856135;28;19920;-76
2024/01/18 17:09:06;;;;;;;;;;;1.10;99.90;;;;;;20853613;28;19918;-75
2024/01/18 17:19:06;;;;;;;;;;;1.20;99.90;;;;;;20852965;28;20299;-75
2024/01/18 17:29:07;;;;;;;;;;;1.10;99.90;;;;;;20832035;28;19917;-76
2024/01/18 17:39:08;;;;;;;;;;;1.00;99.90;;;;;;20887512;28;19913;-75
2024/01/18 17:49:08;;;;;;;;;;;0.90;99.90;;;;;;20920422;28;19917;-76
2024/01/18 17:59:09;;;;;;;;;;;0.70;99.90;;;;;;20914703;28;19913;-78
2024/01/18 18:09:11;;;;;;;;;;;0.70;99.90;;;;;;20924704;28;19917;-76
2024/01/18 18:19:12;;;;;;;;;;;0.60;99.90;;;;;;20922498;28;19923;-76
2024/01/18 18:29:12;;;;;;;;;;;0.70;99.90;;;;;;20921579;28;19960;-76
2024/01/18 18:39:13;;;;;;;;;;;0.70;99.90;;;;;;20907020;28;20315;-75
2024/01/18 18:49:14;;;;;;;;;;;0.60;99.90;;;;;;20898596;28;19952;-75
2024/01/18 18:59:14;;;;;;;;;;;0.70;99.90;;;;;;20889556;28;20004;-76
2024/01/18 19:09:15;;;;;;;;;;;0.60;99.90;;;;;;20876713;28;19935;-76
2024/01/18 19:19:16;;;;;;;;;;;0.60;99.90;;;;;;20894127;28;20000;-76
2024/01/18 19:29:16;;;;;;;;;;;0.50;99.90;;;;;;20861609;28;20376;-76
2024/01/18 19:39:17;;;;;;;;;;;0.50;99.90;;;;;;20863887;28;19936;-76
2024/01/18 19:49:18;;;;;;;;;;;0.50;99.90;;;;;;20862615;28;19917;-77
2024/01/18 19:59:18;;;;;;;;;;;0.60;99.90;;;;;;20859469;28;19921;-77
2024/01/18 20:09:19;;;;;;;;;;;0.70;99.90;;;;;;20858043;28;20361;-76
2024/01/18 20:19:20;;;;;;;;;;;0.80;99.90;;;;;;20856486;28;20421;-77
2024/01/18 20:29:21;;;;;;;;;;;0.70;99.90;;;;;;20862528;28;19945;-76
2024/01/18 20:39:21;;;;;;;;;;;0.70;99.90;;;;;;20878951;28;19913;-75
2024/01/18 20:49:23;;;;;;;;;;;0.70;99.90;;;;;;20886465;28;19916;-76
2024/01/18 20:59:24;;;;;;;;;;;0.60;99.90;;;;;;20898027;28;19955;-77
2024/01/18 21:09:27;;;;;;;;;;;0.50;99.90;;;;;;20947831;28;19925;-78
2024/01/18 21:19:27;;;;;;;;;;;0.50;99.90;;;;;;20967183;28;19913;-78
2024/01/18 21:29:28;;;;;;;;;;;0.50;99.90;;;;;;20961577;28;20015;-78
2024/01/18 21:39:29;;;;;;;;;;;0.50;99.90;;;;;;20935326;28;19913;-78
2024/01/18 21:49:33;;;;;;;;;;;0.30;99.90;;;;;;20892463;28;19917;-77
2024/01/18 21:59:34;;;;;;;;;;;0.40;99.90;;;;;;20860971;28;20006;-77
2024/01/18 22:09:35;;;;;;;;;;;0.40;99.90;;;;;;20855644;28;20330;-76
2024/01/18 22:19:35;;;;;;;;;;;0.40;99.90;;;;;;20875428;28;19954;-77
2024/01/18 22:29:36;;;;;;;;;;;0.20;99.90;;;;;;20908058;28;19975;-77
2024/01/18 22:39:36;;;;;;;;;;;0.40;99.90;;;;;;20876047;28;20003;-78
2024/01/18 22:49:37;;;;;;;;;;;0.20;99.90;;;;;;20901041;28;20280;-78
2024/01/18 22:59:38;;;;;;;;;;;0.30;99.90;;;;;;20901720;28;19939;-76
2024/01/18 23:09:38;;;;;;;;;;;0.40;99.90;;;;;;20908402;28;19923;-77
2024/01/18 23:19:39;;;;;;;;;;;0.40;99.90;;;;;;20892300;28;19913;-77
2024/01/18 23:29:40;;;;;;;;;;;0.30;99.90;;;;;;20903166;28;20284;-78
2024/01/18 23:39:41;;;;;;;;;;;0.40;99.90;;;;;;20890418;28;20374;-78
2024/01/18 23:49:41;;;;;;;;;;;0.40;99.90;;;;;;20899741;28;19951;-79
2024/01/18 23:59:42;;;;;;;;;;;0.50;99.90;;;;;;20899025;28;19917;-78
